Le Ponant — FGZZ — position and weather

sailwx.info

Track history (hours):
 
Tides and Currents Weather Stations Pressure Air Temp Water Temp Dewpoint Dewpoint Depression Visibility Wind Speed Wind Dir Waves Ship Positions

Le Ponant

Operator: Compangy des Iles du Ponant

Last reported at 2016-Dec-23 20:29 UTC. Time now 2017-Mar-23 18:13 UTC.
Position N 17°01' W 061°47'.
Warning: this ship's position is months out of date.

Length 84 m; draft 4.2 m.

Type: Passenger vessel. MMSI: 227186000.

Date/timePositionNaut miles runAvg speedWind from/ knotsBaromVisibWave heightAir tempDewpointWater temp
2016-Dec-23 20:29N 17°01' W 061°47'0 0.0
2016-Dec-23 19:33N 17°01' W 061°47'0 0.0
2016-Dec-23 18:32N 17°01' W 061°47'0 0.0
2016-Dec-23 17:32N 17°01' W 061°47'0 0.0
2016-Dec-23 16:32N 17°01' W 061°47'0 0.0
2016-Dec-23 15:32N 17°01' W 061°47'0 0.0
2016-Dec-23 14:32N 17°01' W 061°47'0 0.0
2016-Dec-23 13:32N 17°01' W 061°47'0 0.0
2016-Dec-23 12:32N 17°01' W 061°47'4 4.0
2016-Dec-23 11:34N 16°60' W 061°51'7 6.7
2016-Dec-23 10:33N 17°02' W 061°57'7 6.9
2016-Dec-23 09:33N 17°07' W 062°03'9 8.5
2016-Dec-23 08:33N 17°12' W 062°10'1111.4
2016-Dec-23 07:33N 17°21' W 062°17'54 2.4
2016-Dec-22 09:15N 17°55' W 063°01'5 6.7
2016-Dec-22 08:30N 17°56' W 063°06'8 7.3
2016-Dec-22 07:28N 17°59' W 063°13'8 8.2
2016-Dec-22 06:27N 18°02' W 063°21'7 7.2
2016-Dec-22 05:32N 18°03' W 063°28'59 3.9
2016-Dec-21 14:11N 18°31' W 064°23'5 0.7
2016-Dec-21 06:29N 18°27' W 064°27'0 0.0
2016-Dec-20 21:12N 18°27' W 064°27'3 4.7
2016-Dec-20 20:31N 18°25' W 064°29'5 5.6
2016-Dec-20 19:33N 18°23' W 064°34'6 5.6
2016-Dec-20 18:33N 18°22' W 064°40'3 2.7
2016-Dec-20 17:32N 18°23' W 064°43'0 0.0
2016-Dec-20 16:21N 18°23' W 064°43'0 0.0
2016-Dec-20 15:33N 18°23' W 064°43'0 0.0
2016-Dec-20 14:33N 18°23' W 064°43'0 0.0
2016-Dec-20 13:33N 18°23' W 064°43'0 0.0
2016-Dec-20 12:33N 18°23' W 064°43'0 0.3
2016-Dec-20 11:33N 18°23' W 064°43'4 3.8
2016-Dec-20 10:32N 18°26' W 064°46'0 0.0
2016-Dec-20 09:32N 18°26' W 064°46'0 0.0
2016-Dec-20 08:32N 18°26' W 064°46'0 0.0
2016-Dec-20 07:32N 18°26' W 064°46'0 0.0
2016-Dec-20 06:32N 18°26' W 064°46'0 0.0
2016-Dec-20 05:32N 18°26' W 064°46'0 0.0
2016-Dec-20 04:32N 18°26' W 064°46'0 0.0
2016-Dec-20 03:32N 18°26' W 064°46'0 0.0
2016-Dec-20 02:26N 18°26' W 064°46'0 0.0
2016-Dec-20 01:32N 18°26' W 064°46'0 0.0
2016-Dec-20 00:32N 18°26' W 064°46'0 0.0
2016-Dec-19 23:32N 18°26' W 064°46'0 0.0
2016-Dec-19 22:32N 18°26' W 064°46'0 0.0
2016-Dec-19 21:32N 18°26' W 064°46'0 0.0
2016-Dec-19 20:32N 18°26' W 064°46'0 0.0
2016-Dec-19 19:32N 18°26' W 064°46'0 0.0
2016-Dec-19 18:32N 18°26' W 064°46'0 0.0
2016-Dec-19 17:32N 18°26' W 064°46'0 0.0
2016-Dec-19 16:32N 18°26' W 064°46'0 0.0
2016-Dec-19 15:32N 18°26' W 064°46'0 0.0
2016-Dec-19 14:32N 18°26' W 064°46'0 0.0
2016-Dec-19 13:32N 18°26' W 064°46'0 0.0
2016-Dec-19 12:32N 18°26' W 064°46'3 3.5
2016-Dec-19 11:33N 18°25' W 064°42'1110.6
2016-Dec-19 10:32N 18°32' W 064°33'1110.6
2016-Dec-19 09:28N 18°32' W 064°21'72 2.3
2016-Dec-18 01:24N 18°12' W 063°08'4 4.6
2016-Dec-18 00:33N 18°08' W 063°10'6 5.4
2016-Dec-17 23:28N 18°05' W 063°05'0 0.0
2016-Dec-17 22:32N 18°05' W 063°05'0 0.0
2016-Dec-17 21:32N 18°05' W 063°05'0 0.0
2016-Dec-17 20:20N 18°05' W 063°05'0 0.0
2016-Dec-17 19:32N 18°05' W 063°05'0 0.0
2016-Dec-17 18:32N 18°05' W 063°05'0 0.0
2016-Dec-17 17:23N 18°05' W 063°05'0 0.0
2016-Dec-17 16:23N 18°05' W 063°05'0 0.0
2016-Dec-17 15:26N 18°05' W 063°05'0 0.0
2016-Dec-17 14:26N 18°05' W 063°05'0 0.0
2016-Dec-17 13:29N 18°05' W 063°05'0 0.0
2016-Dec-17 12:29N 18°05' W 063°05'0 0.0
2016-Dec-17 11:17N 18°05' W 063°05'0 0.4
2016-Dec-17 10:33N 18°05' W 063°05'8 7.1
2016-Dec-17 09:30N 18°09' W 063°12'4 0.2
2016-Dec-16 10:26N 18°12' W 063°08'6 6.6
2016-Dec-16 09:33N 18°07' W 063°12'5 5.0
2016-Dec-16 08:31N 18°02' W 063°11'8 8.2
2016-Dec-16 07:32N 18°10' W 063°14'3 3.4
2016-Dec-16 06:33N 18°07' W 063°13'8 7.7
2016-Dec-16 05:31N 17°60' W 063°09'7 7.7
2016-Dec-16 04:33N 17°55' W 063°02'75 1.6
2016-Dec-14 04:25N 17°00' W 062°09'9 9.9
2016-Dec-14 03:33N 16°60' W 062°00'10 9.7
2016-Dec-14 02:33N 16°59' W 061°50'3 3.2
2016-Dec-14 01:32N 17°00' W 061°47'0 0.0
2016-Dec-14 00:31N 17°00' W 061°47'0 0.0
2016-Dec-13 23:32N 17°00' W 061°47'1 0.7
2016-Dec-13 22:33N 16°60' W 061°48'9 8.9
2016-Dec-13 21:34N 17°02' W 061°57'3 2.9
2016-Dec-13 20:31N 17°04' W 061°55'  
Track history (hours):
 
Tides and Currents Weather Stations Pressure Air Temp Water Temp Dewpoint Dewpoint Depression Visibility Wind Speed Wind Dir Waves Ship Positions

Le Ponant

Operator: Compangy des Iles du Ponant

Last reported at 2016-Dec-23 20:29 UTC. Time now 2017-Mar-23 18:13 UTC.
Position N 17°01' W 061°47'.
Warning: this ship's position is months out of date.

Length 84 m; draft 4.2 m.

Type: Passenger vessel. MMSI: 227186000.

Date/timePositionNaut miles runAvg speedWind from/ knotsBaromVisibWave heightAir tempDewpointWater temp
2016-Dec-23 20:29N 17°01' W 061°47'0 0.0
2016-Dec-23 19:33N 17°01' W 061°47'0 0.0
2016-Dec-23 18:32N 17°01' W 061°47'0 0.0
2016-Dec-23 17:32N 17°01' W 061°47'0 0.0
2016-Dec-23 16:32N 17°01' W 061°47'0 0.0
2016-Dec-23 15:32N 17°01' W 061°47'0 0.0
2016-Dec-23 14:32N 17°01' W 061°47'0 0.0
2016-Dec-23 13:32N 17°01' W 061°47'0 0.0
2016-Dec-23 12:32N 17°01' W 061°47'4 4.0
2016-Dec-23 11:34N 16°60' W 061°51'7 6.7
2016-Dec-23 10:33N 17°02' W 061°57'7 6.9
2016-Dec-23 09:33N 17°07' W 062°03'9 8.5
2016-Dec-23 08:33N 17°12' W 062°10'1111.4
2016-Dec-23 07:33N 17°21' W 062°17'54 2.4
2016-Dec-22 09:15N 17°55' W 063°01'5 6.7
2016-Dec-22 08:30N 17°56' W 063°06'8 7.3
2016-Dec-22 07:28N 17°59' W 063°13'8 8.2
2016-Dec-22 06:27N 18°02' W 063°21'7 7.2
2016-Dec-22 05:32N 18°03' W 063°28'59 3.9
2016-Dec-21 14:11N 18°31' W 064°23'5 0.7
2016-Dec-21 06:29N 18°27' W 064°27'0 0.0
2016-Dec-20 21:12N 18°27' W 064°27'3 4.7
2016-Dec-20 20:31N 18°25' W 064°29'5 5.6
2016-Dec-20 19:33N 18°23' W 064°34'6 5.6
2016-Dec-20 18:33N 18°22' W 064°40'3 2.7
2016-Dec-20 17:32N 18°23' W 064°43'0 0.0
2016-Dec-20 16:21N 18°23' W 064°43'0 0.0
2016-Dec-20 15:33N 18°23' W 064°43'0 0.0
2016-Dec-20 14:33N 18°23' W 064°43'0 0.0
2016-Dec-20 13:33N 18°23' W 064°43'0 0.0
2016-Dec-20 12:33N 18°23' W 064°43'0 0.3
2016-Dec-20 11:33N 18°23' W 064°43'4 3.8
2016-Dec-20 10:32N 18°26' W 064°46'0 0.0
2016-Dec-20 09:32N 18°26' W 064°46'0 0.0
2016-Dec-20 08:32N 18°26' W 064°46'0 0.0
2016-Dec-20 07:32N 18°26' W 064°46'0 0.0
2016-Dec-20 06:32N 18°26' W 064°46'0 0.0
2016-Dec-20 05:32N 18°26' W 064°46'0 0.0
2016-Dec-20 04:32N 18°26' W 064°46'0 0.0
2016-Dec-20 03:32N 18°26' W 064°46'0 0.0
2016-Dec-20 02:26N 18°26' W 064°46'0 0.0
2016-Dec-20 01:32N 18°26' W 064°46'0 0.0
2016-Dec-20 00:32N 18°26' W 064°46'0 0.0
2016-Dec-19 23:32N 18°26' W 064°46'0 0.0
2016-Dec-19 22:32N 18°26' W 064°46'0 0.0
2016-Dec-19 21:32N 18°26' W 064°46'0 0.0
2016-Dec-19 20:32N 18°26' W 064°46'0 0.0
2016-Dec-19 19:32N 18°26' W 064°46'0 0.0
2016-Dec-19 18:32N 18°26' W 064°46'0 0.0
2016-Dec-19 17:32N 18°26' W 064°46'0 0.0
2016-Dec-19 16:32N 18°26' W 064°46'0 0.0
2016-Dec-19 15:32N 18°26' W 064°46'0 0.0
2016-Dec-19 14:32N 18°26' W 064°46'0 0.0
2016-Dec-19 13:32N 18°26' W 064°46'0 0.0
2016-Dec-19 12:32N 18°26' W 064°46'3 3.5
2016-Dec-19 11:33N 18°25' W 064°42'1110.6
2016-Dec-19 10:32N 18°32' W 064°33'1110.6
2016-Dec-19 09:28N 18°32' W 064°21'72 2.3
2016-Dec-18 01:24N 18°12' W 063°08'4 4.6
2016-Dec-18 00:33N 18°08' W 063°10'6 5.4
2016-Dec-17 23:28N 18°05' W 063°05'0 0.0
2016-Dec-17 22:32N 18°05' W 063°05'0 0.0
2016-Dec-17 21:32N 18°05' W 063°05'0 0.0
2016-Dec-17 20:20N 18°05' W 063°05'0 0.0
2016-Dec-17 19:32N 18°05' W 063°05'0 0.0
2016-Dec-17 18:32N 18°05' W 063°05'0 0.0
2016-Dec-17 17:23N 18°05' W 063°05'0 0.0
2016-Dec-17 16:23N 18°05' W 063°05'0 0.0
2016-Dec-17 15:26N 18°05' W 063°05'0 0.0
2016-Dec-17 14:26N 18°05' W 063°05'0 0.0
2016-Dec-17 13:29N 18°05' W 063°05'0 0.0
2016-Dec-17 12:29N 18°05' W 063°05'0 0.0
2016-Dec-17 11:17N 18°05' W 063°05'0 0.4
2016-Dec-17 10:33N 18°05' W 063°05'8 7.1
2016-Dec-17 09:30N 18°09' W 063°12'4 0.2
2016-Dec-16 10:26N 18°12' W 063°08'6 6.6
2016-Dec-16 09:33N 18°07' W 063°12'5 5.0
2016-Dec-16 08:31N 18°02' W 063°11'8 8.2
2016-Dec-16 07:32N 18°10' W 063°14'3 3.4
2016-Dec-16 06:33N 18°07' W 063°13'8 7.7
2016-Dec-16 05:31N 17°60' W 063°09'7 7.7
2016-Dec-16 04:33N 17°55' W 063°02'75 1.6
2016-Dec-14 04:25N 17°00' W 062°09'9 9.9
2016-Dec-14 03:33N 16°60' W 062°00'10 9.7
2016-Dec-14 02:33N 16°59' W 061°50'3 3.2
2016-Dec-14 01:32N 17°00' W 061°47'0 0.0
2016-Dec-14 00:31N 17°00' W 061°47'0 0.0
2016-Dec-13 23:32N 17°00' W 061°47'1 0.7
2016-Dec-13 22:33N 16°60' W 061°48'9 8.9
2016-Dec-13 21:34N 17°02' W 061°57'3 2.9
2016-Dec-13 20:31N 17°04' W 061°55'  

Dump ship's entire track history